Map

Track Data

SID SEASON NUMBER BASIN SUBBASIN NAME ISO_TIME NATURE LAT LON WMO_WIND WMO_PRES WMO_AGENCY TRACK_TYPE DIST2LAND LANDFALL IFLAG USA_AGENCY USA_ATCF_ID USA_LAT USA_LON USA_RECORD USA_STATUS USA_WIND USA_PRES USA_SSHS USA_R34_NE USA_R34_SE USA_R34_SW USA_R34_NW USA_R50_NE USA_R50_SE USA_R50_SW USA_R50_NW USA_R64_NE USA_R64_SE USA_R64_SW USA_R64_NW USA_POCI USA_ROCI USA_RMW USA_EYE TOKYO_LAT TOKYO_LON TOKYO_GRADE TOKYO_WIND TOKYO_PRES TOKYO_R50_DIR TOKYO_R50_LONG TOKYO_R50_SHORT TOKYO_R30_DIR TOKYO_R30_LONG TOKYO_R30_SHORT TOKYO_LAND CMA_LAT CMA_LON CMA_CAT CMA_WIND CMA_PRES HKO_LAT HKO_LON HKO_CAT HKO_WIND HKO_PRES NEWDELHI_LAT NEWDELHI_LON NEWDELHI_GRADE NEWDELHI_WIND NEWDELHI_PRES NEWDELHI_CI NEWDELHI_DP NEWDELHI_POCI REUNION_LAT REUNION_LON REUNION_TYPE REUNION_WIND REUNION_PRES REUNION_TNUM REUNION_CI REUNION_RMW REUNION_R34_NE REUNION_R34_SE REUNION_R34_SW REUNION_R34_NW REUNION_R50_NE REUNION_R50_SE REUNION_R50_SW REUNION_R50_NW REUNION_R64_NE REUNION_R64_SE REUNION_R64_SW REUNION_R64_NW BOM_LAT BOM_LON BOM_TYPE BOM_WIND BOM_PRES BOM_TNUM BOM_CI BOM_RMW BOM_R34_NE BOM_R34_SE BOM_R34_SW BOM_R34_NW BOM_R50_NE BOM_R50_SE BOM_R50_SW BOM_R50_NW BOM_R64_NE BOM_R64_SE BOM_R64_SW BOM_R64_NW BOM_ROCI BOM_POCI BOM_EYE BOM_POS_METHOD BOM_PRES_METHOD NADI_LAT NADI_LON NADI_CAT NADI_WIND NADI_PRES WELLINGTON_LAT WELLINGTON_LON WELLINGTON_WIND WELLINGTON_PRES DS824_LAT DS824_LON DS824_STAGE DS824_WIND DS824_PRES TD9636_LAT TD9636_LON TD9636_STAGE TD9636_WIND TD9636_PRES TD9635_LAT TD9635_LON TD9635_WIND TD9635_PRES TD9635_ROCI NEUMANN_LAT NEUMANN_LON NEUMANN_CLASS NEUMANN_WIND NEUMANN_PRES MLC_LAT MLC_LON MLC_CLASS MLC_WIND MLC_PRES USA_GUST BOM_GUST BOM_GUST_PER REUNION_GUST REUNION_GUST_PER USA_SEAHGT USA_SEARAD_NE USA_SEARAD_SE USA_SEARAD_SW USA_SEARAD_NW STORM_SPEED STORM_DIR
1969268N37325 1969 87 NA NA NOT_NAMED 1969-09-24 12:00:00 SS 36.5000 -35.0000 30 1005 hurdat_atl main 1872 1872 O_____________ hurdat_atl AL221969 36.5000 -35.0000 SD 30 1005 -2 12 207
1969268N37325 1969 87 NA NA NOT_NAMED 1969-09-24 15:00:00 SS 35.9628 -35.3485 main 1891 1891 P_____________ AL221969 35.9628 -35.3485 SD 30 -2 12 210
1969268N37325 1969 87 NA NA NOT_NAMED 1969-09-24 18:00:00 SS 35.5000 -35.7000 30 hurdat_atl main 1906 1906 O_____________ hurdat_atl AL221969 35.5000 -35.7000 SD 30 -2 10 217
1969268N37325 1969 87 NA NA NOT_NAMED 1969-09-24 21:00:00 SS 35.1747 -36.0698 main 1905 1897 P_____________ AL221969 35.1747 -36.0698 SD 30 -2 8 233
1969268N37325 1969 87 NA NA NOT_NAMED 1969-09-25 00:00:00 SS 35.0000 -36.5000 30 hurdat_atl main 1897 1867 O_____________ hurdat_atl AL221969 35.0000 -36.5000 SD 30 -2 8 255
1969268N37325 1969 87 NA NA NOT_NAMED 1969-09-25 03:00:00 SS 34.9627 -37.0419 main 1867 1831 P_____________ AL221969 34.9627 -37.0419 SD 30 -2 9 270
1969268N37325 1969 87 NA NA NOT_NAMED 1969-09-25 06:00:00 SS 35.0000 -37.6000 30 hurdat_atl main 1831 1802 O_____________ hurdat_atl AL221969 35.0000 -37.6000 SD 30 -2 9 272
1969268N37325 1969 87 NA NA NOT_NAMED 1969-09-25 09:00:00 SS 34.9925 -38.1026 main 1802 1779 P_____________ AL221969 34.9925 -38.1026 SD 32 -2 7 270
1969268N37325 1969 87 NA NA NOT_NAMED 1969-09-25 12:00:00 SS 35.0000 -38.5000 35 1003 hurdat_atl main 1779 1768 O_____________ hurdat_atl AL221969 35.0000 -38.5000 SS 35 1003 -2 5 275
1969268N37325 1969 87 NA NA NOT_NAMED 1969-09-25 15:00:00 SS 35.0422 -38.7450 main 1768 1748 P_____________ AL221969 35.0422 -38.7450 SS 37 -2 3 287
1969268N37325 1969 87 NA NA NOT_NAMED 1969-09-25 18:00:00 SS 35.1000 -38.9000 40 hurdat_atl main 1748 1742 O_____________ hurdat_atl AL221969 35.1000 -38.9000 SS 40 -2 3 293
1969268N37325 1969 87 NA NA NOT_NAMED 1969-09-25 21:00:00 SS 35.1499 -39.0500 main 1736 1722 P_____________ AL221969 35.1499 -39.0500 SS 42 -2 3 292
1969268N37325 1969 87 NA NA NOT_NAMED 1969-09-26 00:00:00 SS 35.2000 -39.2000 45 hurdat_atl main 1722 1711 O_____________ hurdat_atl AL221969 35.2000 -39.2000 SS 45 -2 3 288
1969268N37325 1969 87 NA NA NOT_NAMED 1969-09-26 03:00:00 SS 35.2425 -39.3926 main 1711 1691 P_____________ AL221969 35.2425 -39.3926 SS 47 -2 3 287
1969268N37325 1969 87 NA NA NOT_NAMED 1969-09-26 06:00:00 TS 35.3000 -39.6000 50 hurdat_atl main 1691 1671 O_____________ hurdat_atl AL221969 35.3000 -39.6000 TS 50 0 4 290
1969268N37325 1969 87 NA NA NOT_NAMED 1969-09-26 09:00:00 TS 35.3701 -39.8299 main 1671 1651 P_____________ AL221969 35.3701 -39.8299 TS 50 0 4 301
1969268N37325 1969 87 NA NA NOT_NAMED 1969-09-26 12:00:00 TS 35.5000 -40.0000 50 997 hurdat_atl main 1651 1628 O_____________ hurdat_atl AL221969 35.5000 -40.0000 TS 50 997 0 4 331
1969268N37325 1969 87 NA NA NOT_NAMED 1969-09-26 15:00:00 TS 35.7274 -40.0673 main 1628 1607 P_____________ AL221969 35.7274 -40.0673 TS 50 0 5 2
1969268N37325 1969 87 NA NA NOT_NAMED 1969-09-26 18:00:00 TS 36.0000 -40.0000 50 hurdat_atl main 1607 1596 O_____________ hurdat_atl AL221969 36.0000 -40.0000 TS 50 0 6 22
1969268N37325 1969 87 NA NA NOT_NAMED 1969-09-26 21:00:00 TS 36.2499 -39.8100 main 1601 1587 P_____________ AL221969 36.2499 -39.8100 TS 52 0 6 39
1969268N37325 1969 87 NA NA NOT_NAMED 1969-09-27 00:00:00 TS 36.5000 -39.5000 55 hurdat_atl main 1593 1588 O_____________ hurdat_atl AL221969 36.5000 -39.5000 TS 55 0 7 48
1969268N37325 1969 87 NA NA NOT_NAMED 1969-09-27 03:00:00 TS 36.7501 -39.1150 main 1592 1592 P_____________ AL221969 36.7501 -39.1150 TS 57 0 8 52
1969268N37325 1969 87 NA NA NOT_NAMED 1969-09-27 06:00:00 TS 37.0000 -38.7000 60 hurdat_atl main 1600 1598 O_____________ hurdat_atl AL221969 37.0000 -38.7000 TS 60 0 8 52
1969268N37325 1969 87 NA NA NOT_NAMED 1969-09-27 09:00:00 TS 37.2349 -38.3272 main 1608 1597 P_____________ AL221969 37.2349 -38.3272 TS 60 0 7 48
1969268N37325 1969 87 NA NA NOT_NAMED 1969-09-27 12:00:00 TS 37.5000 -38.0000 60 990 hurdat_atl main 1604 1593 O_____________ hurdat_atl AL221969 37.5000 -38.0000 TS 60 990 0 8 39
1969268N37325 1969 87 NA NA NOT_NAMED 1969-09-27 15:00:00 TS 37.8274 -37.7199 main 1599 1582 P_____________ AL221969 37.8274 -37.7199 TS 60 0 8 29
1969268N37325 1969 87 NA NA NOT_NAMED 1969-09-27 18:00:00 TS 38.2000 -37.5000 60 hurdat_atl main 1582 1565 O_____________ hurdat_atl AL221969 38.2000 -37.5000 TS 60 0 8 22
1969268N37325 1969 87 NA NA NOT_NAMED 1969-09-27 21:00:00 TS 38.5774 -37.3272 main 1565 1543 P_____________ AL221969 38.5774 -37.3272 TS 60 0 8 16
1969268N37325 1969 87 NA NA NOT_NAMED 1969-09-28 00:00:00 TS 39.0000 -37.2000 60 hurdat_atl main 1543 1515 O_____________ hurdat_atl AL221969 39.0000 -37.2000 TS 60 0 9 12
1969268N37325 1969 87 NA NA NOT_NAMED 1969-09-28 03:00:00 TS 39.4850 -37.0776 main 1515 1489 P_____________ AL221969 39.4850 -37.0776 TS 60 0 10 9
1969268N37325 1969 87 NA NA NOT_NAMED 1969-09-28 06:00:00 TS 40.0000 -37.0000 60 hurdat_atl main 1489 1457 O_____________ hurdat_atl AL221969 40.0000 -37.0000 TS 60 0 11 5
1969268N37325 1969 87 NA NA NOT_NAMED 1969-09-28 09:00:00 TS 40.5299 -36.9625 main 1457 1427 P_____________ AL221969 40.5299 -36.9625 TS 60 0 10 1
1969268N37325 1969 87 NA NA NOT_NAMED 1969-09-28 12:00:00 TS 41.0000 -37.0000 60 990 hurdat_atl main 1427 1402 O_____________ hurdat_atl AL221969 41.0000 -37.0000 TS 60 990 0 8 352
1969268N37325 1969 87 NA NA NOT_NAMED 1969-09-28 15:00:00 TS 41.3298 -37.0978 main 1402 1370 P_____________ AL221969 41.3298 -37.0978 TS 60 0 6 340
1969268N37325 1969 87 NA NA NOT_NAMED 1969-09-28 18:00:00 TS 41.6000 -37.3000 60 hurdat_atl main 1370 1338 O_____________ hurdat_atl AL221969 41.6000 -37.3000 TS 60 0 7 329
1969268N37325 1969 87 NA NA NOT_NAMED 1969-09-28 21:00:00 TS 41.8993 -37.5608 main 1331 1286 P_____________ AL221969 41.8993 -37.5608 TS 60 0 8 319
1969268N37325 1969 87 NA NA NOT_NAMED 1969-09-29 00:00:00 TS 42.2000 -38.0000 60 hurdat_atl main 1286 1226 O_____________ hurdat_atl AL221969 42.2000 -38.0000 TS 60 0 10 305
1969268N37325 1969 87 NA NA NOT_NAMED 1969-09-29 03:00:00 TS 42.4930 -38.6902 main 1219 1146 P_____________ AL221969 42.4930 -38.6902 TS 60 0 13 298
1969268N37325 1969 87 NA NA NOT_NAMED 1969-09-29 06:00:00 TS 42.8000 -39.5000 60 hurdat_atl main 1146 1074 O_____________ hurdat_atl AL221969 42.8000 -39.5000 TS 60 0 13 297
1969268N37325 1969 87 NA NA NOT_NAMED 1969-09-29 09:00:00 TS 43.0982 -40.3324 main 1074 1002 P_____________ AL221969 43.0982 -40.3324 TS 60 0 13 303
1969268N37325 1969 87 NA NA NOT_NAMED 1969-09-29 12:00:00 TS 43.5000 -41.0000 60 990 hurdat_atl main 1002 954 O_____________ hurdat_atl AL221969 43.5000 -41.0000 TS 60 990 0 12 322
1969268N37325 1969 87 NA NA NOT_NAMED 1969-09-29 15:00:00 TS 44.0367 -41.3418 main 954 913 P_____________ AL221969 44.0367 -41.3418 TS 57 0 13 347
1969268N37325 1969 87 NA NA NOT_NAMED 1969-09-29 18:00:00 TS 44.8000 -41.4000 55 hurdat_atl main 909 878 O_____________ hurdat_atl AL221969 44.8000 -41.4000 TS 55 0 18 2
1969268N37325 1969 87 NA NA NOT_NAMED 1969-09-29 21:00:00 TS 45.8255 -41.2558 main 878 870 P_____________ AL221969 45.8255 -41.2558 TS 52 0 22 7
1969268N37325 1969 87 NA NA NOT_NAMED 1969-09-30 00:00:00 TS 47.0000 -41.0000 50 hurdat_atl main 872 O_____________ hurdat_atl AL221969 47.0000 -41.0000 TS 50 0 24 8

About IBTrACS Database

This database is a web-friendly format of International Best Track Archive for Climate Stewardship (IBTrACS), a global best track data archive curated by NOAA dating back to 1842.

Updated: 2021-12-03